Time;durP1;ratioP1;P1;durP2;ratioP2;P2;SDS_P1;SDS_P2;PMS_P1;PMS_P2;Temp;Humidity;BMP_temperature;BMP_pressure;BME280_temperature;BME280_humidity;BME280_pressure;Samples;Min_cycle;Max_cycle;Signal;HPM_P1;HPM_P2
2021/06/13 00:01:37;;;;;;;9.40;6.57;;;;;;;15.41;76.09;96906.66;5007628;28;20026;-78
2021/06/13 00:04:03;;;;;;;8.48;6.25;;;;;;;15.44;75.93;96906.31;5010538;28;20025;-77
2021/06/13 00:06:29;;;;;;;11.20;7.13;;;;;;;15.38;76.34;96905.19;5017810;28;20018;-77
2021/06/13 00:08:55;;;;;;;11.77;6.90;;;;;;;15.35;76.26;96904.69;5015673;28;20094;-78
2021/06/13 00:11:21;;;;;;;10.50;7.37;;;;;;;15.29;76.49;96899.09;5025445;28;20033;-80
2021/06/13 00:13:49;;;;;;;10.30;7.53;;;;;;;15.31;76.17;96902.38;4996388;28;20305;-80
2021/06/13 00:16:16;;;;;;;11.40;6.87;;;;;;;15.28;76.16;96907.22;4999637;28;20071;-78
2021/06/13 00:18:42;;;;;;;9.93;6.77;;;;;;;15.25;76.32;96907.56;5007464;28;20813;-76
2021/06/13 00:21:07;;;;;;;12.07;6.83;;;;;;;15.26;75.22;96902.09;5014301;28;20117;-77
2021/06/13 00:23:33;;;;;;;9.57;7.13;;;;;;;15.17;76.33;96900.47;4999237;28;20037;-77
2021/06/13 00:25:59;;;;;;;12.53;7.53;;;;;;;15.15;75.90;96913.06;5022624;28;20052;-77
2021/06/13 00:28:25;;;;;;;10.03;7.93;;;;;;;15.19;75.66;96909.09;5048676;28;20973;-78
2021/06/13 00:30:50;;;;;;;11.10;7.27;;;;;;;15.18;75.01;96922.50;5008041;28;20036;-77
2021/06/13 00:33:16;;;;;;;9.27;6.60;;;;;;;15.17;75.03;96923.50;5020206;28;20030;-77
2021/06/13 00:35:42;;;;;;;14.43;7.20;;;;;;;15.14;75.11;96916.72;4996859;28;20018;-77
2021/06/13 00:38:08;;;;;;;9.50;7.20;;;;;;;15.09;75.00;96919.88;5016835;28;20072;-75
2021/06/13 00:40:34;;;;;;;10.30;6.80;;;;;;;15.05;74.90;96918.53;5014871;28;20029;-77
2021/06/13 00:43:00;;;;;;;11.60;6.97;;;;;;;15.10;73.91;96920.69;5009695;28;20034;-77
2021/06/13 00:45:27;;;;;;;9.00;6.90;;;;;;;15.13;73.92;96924.84;5009368;28;20057;-77
2021/06/13 00:47:54;;;;;;;9.83;6.73;;;;;;;15.05;74.23;96923.84;5000553;28;20044;-77
2021/06/13 00:50:32;;;;;;;12.73;7.40;;;;;;;14.98;75.42;96927.34;5001910;28;20040;-77
2021/06/13 00:53:00;;;;;;;11.07;6.73;;;;;;;14.93;75.18;96927.88;5012107;28;20108;-77
2021/06/13 00:55:27;;;;;;;11.23;7.37;;;;;;;14.84;75.48;96929.69;5021786;28;20470;-77
2021/06/13 00:57:53;;;;;;;9.43;7.10;;;;;;;14.83;75.57;96933.34;5028529;28;20030;-77
2021/06/13 01:00:20;;;;;;;10.87;7.73;;;;;;;14.82;75.67;96923.75;5008387;28;20084;-80
2021/06/13 01:02:48;;;;;;;11.03;7.57;;;;;;;14.83;75.71;96927.22;5000899;28;20033;-80
2021/06/13 01:05:17;;;;;;;12.20;8.63;;;;;;;14.75;76.06;96924.59;5007486;28;20033;-79
2021/06/13 01:08:04;;;;;;;9.70;7.53;;;;;;;14.70;76.03;96924.28;5021600;28;20040;-77
2021/06/13 01:10:39;;;;;;;9.27;7.43;;;;;;;14.64;76.39;96923.13;5036410;28;20025;-77
2021/06/13 01:13:07;;;;;;;13.93;8.50;;;;;;;14.60;76.34;96927.91;5014563;28;20075;-77
2021/06/13 01:15:40;;;;;;;9.77;7.30;;;;;;;14.53;77.03;96924.28;5030501;28;20089;-78
2021/06/13 01:18:16;;;;;;;11.65;8.00;;;;;;;14.48;77.17;96929.22;5001333;28;20189;-77
2021/06/13 01:20:52;;;;;;;11.57;7.60;;;;;;;14.49;76.95;96932.72;5011433;28;20521;-77
2021/06/13 01:23:40;;;;;;;9.27;7.40;;;;;;;14.49;76.73;96938.81;5019501;28;20034;-78
2021/06/13 01:26:37;;;;;;;12.10;7.67;;;;;;;14.49;76.79;96933.53;5016550;28;20025;-76
2021/06/13 01:29:14;;;;;;;10.23;7.33;;;;;;;14.37;77.27;96933.03;5023022;28;20564;-76
2021/06/13 01:31:48;;;;;;;11.33;7.97;;;;;;;14.32;78.18;96932.72;5007456;28;20026;-77
2021/06/13 01:34:20;;;;;;;10.63;7.40;;;;;;;14.28;77.95;96936.66;5005725;28;20030;-78
2021/06/13 01:36:47;;;;;;;11.83;7.10;;;;;;;14.25;77.85;96939.66;5007136;28;20029;-76
2021/06/13 01:39:20;;;;;;;12.20;7.83;;;;;;;14.25;78.18;96942.31;5002654;28;20021;-77
2021/06/13 01:41:47;;;;;;;10.23;7.10;;;;;;;14.19;78.39;96942.97;4996745;28;20497;-77
2021/06/13 01:44:14;;;;;;;10.87;7.17;;;;;;;14.20;77.82;96936.66;5031716;28;20370;-77
2021/06/13 01:46:43;;;;;;;12.23;7.80;;;;;;;14.15;78.29;96933.69;5020744;28;20052;-78
2021/06/13 01:49:11;;;;;;;11.40;7.03;;;;;;;14.09;77.92;96937.00;5027647;28;20116;-77
2021/06/13 01:51:39;;;;;;;12.47;7.37;;;;;;;14.03;77.52;96938.47;5001002;28;20128;-76
2021/06/13 01:54:07;;;;;;;11.63;7.80;;;;;;;14.02;77.64;96930.72;5021333;28;20116;-77
2021/06/13 01:56:41;;;;;;;11.37;7.47;;;;;;;14.02;77.72;96938.66;5016959;28;20025;-77
2021/06/13 01:59:09;;;;;;;11.43;7.23;;;;;;;14.02;78.05;96933.38;5028054;28;20055;-77
2021/06/13 02:01:44;;;;;;;11.67;7.37;;;;;;;13.98;78.50;96935.47;5026404;28;20028;-77
2021/06/13 02:04:11;;;;;;;11.37;7.27;;;;;;;13.97;78.09;96940.94;5022553;28;20095;-77
2021/06/13 02:06:49;;;;;;;12.53;7.10;;;;;;;13.97;78.29;96940.94;5017606;28;20023;-77
2021/06/13 02:09:22;;;;;;;12.60;8.23;;;;;;;13.91;78.98;96940.59;5014490;28;20406;-77
2021/06/13 02:11:56;;;;;;;12.67;7.53;;;;;;;13.85;78.91;96930.69;5014224;28;20418;-77
2021/06/13 02:14:24;;;;;;;13.30;8.13;;;;;;;13.84;79.00;96934.31;5014427;28;20564;-77
2021/06/13 02:16:57;;;;;;;;;;;;;;;13.85;78.89;96935.97;5027838;28;20571;-77
2021/06/13 02:19:25;;;;;;;10.77;7.57;;;;;;;13.81;79.11;96933.81;5047519;28;19920;-76
2021/06/13 02:22:00;;;;;;;12.10;7.80;;;;;;;13.78;79.05;96942.06;5031655;28;20029;-77
2021/06/13 02:24:36;;;;;;;13.23;7.33;;;;;;;13.76;79.58;96946.69;5021129;28;20069;-77
2021/06/13 02:27:07;;;;;;;13.30;8.07;;;;;;;13.74;79.52;96938.91;4991890;28;20108;-77
2021/06/13 02:29:40;;;;;;;11.53;7.13;;;;;;;13.66;80.53;96942.38;5000645;28;20071;-77
2021/06/13 02:32:10;;;;;;;12.20;8.10;;;;;;;13.62;80.96;96945.50;5025407;28;20056;-77
2021/06/13 02:34:37;;;;;;;12.97;8.63;;;;;;;13.49;81.23;96945.13;5015054;28;20041;-77
2021/06/13 02:37:08;;;;;;;11.43;7.90;;;;;;;13.54;80.87;96948.09;5021015;28;20078;-76
2021/06/13 02:39:34;;;;;;;13.10;8.03;;;;;;;13.53;81.06;96951.75;5022687;28;20083;-76
2021/06/13 02:42:05;;;;;;;11.30;6.97;;;;;;;13.52;80.97;96955.38;4994280;28;20087;-77
2021/06/13 02:44:34;;;;;;;9.30;7.07;;;;;;;13.46;81.53;96951.56;5005459;28;20376;-77
2021/06/13 02:47:01;;;;;;;11.27;7.53;;;;;;;13.39;82.28;96959.28;5012409;28;20089;-77
2021/06/13 02:49:27;;;;;;;10.07;7.67;;;;;;;13.38;82.41;96959.44;5006857;28;20037;-77
2021/06/13 02:51:59;;;;;;;12.57;7.67;;;;;;;13.30;83.31;96962.88;5011418;28;20036;-77
2021/06/13 02:54:26;;;;;;;10.23;7.40;;;;;;;13.18;83.81;96970.22;5030071;28;20036;-77
2021/06/13 02:56:58;;;;;;;9.97;7.30;;;;;;;13.15;84.04;96967.06;5002998;28;20108;-77
2021/06/13 02:59:47;;;;;;;11.03;7.50;;;;;;;12.97;85.37;96962.66;5028489;28;20486;-76
2021/06/13 03:02:20;;;;;;;10.40;7.73;;;;;;;12.99;85.27;96965.16;4993373;28;20029;-76
2021/06/13 03:04:48;;;;;;;11.65;7.75;;;;;;;12.91;85.64;96971.22;5020069;28;20099;-76
2021/06/13 03:07:17;;;;;;;11.23;7.80;;;;;;;12.89;85.17;96965.28;5007603;28;20062;-77
2021/06/13 03:09:45;;;;;;;11.80;8.50;;;;;;;12.78;85.91;96970.81;5021782;28;20069;-76
2021/06/13 03:12:19;;;;;;;14.27;8.43;;;;;;;12.84;85.59;96969.34;5032222;28;20033;-77
2021/06/13 03:14:46;;;;;;;14.13;8.60;;;;;;;12.82;85.83;96973.97;5013850;28;20033;-77
2021/06/13 03:17:13;;;;;;;12.63;8.63;;;;;;;12.78;86.50;96983.19;5016043;28;20025;-76
2021/06/13 03:19:42;;;;;;;11.30;7.80;;;;;;;12.73;87.47;96976.53;5008419;28;20091;-76
2021/06/13 03:22:10;;;;;;;13.20;8.57;;;;;;;12.76;86.72;96979.88;5018143;28;20025;-77
2021/06/13 03:24:39;;;;;;;11.50;8.57;;;;;;;12.75;87.18;96986.97;5020989;28;20120;-77
2021/06/13 03:27:09;;;;;;;12.03;8.87;;;;;;;12.65;88.24;96994.16;5011841;28;20100;-77
2021/06/13 03:29:39;;;;;;;13.87;8.23;;;;;;;12.68;87.98;96993.84;5013854;28;20124;-77
2021/06/13 03:32:09;;;;;;;11.47;8.47;;;;;;;12.62;88.41;96997.09;5000989;28;20071;-77
2021/06/13 03:34:38;;;;;;;11.87;8.37;;;;;;;12.62;88.96;96992.63;5002426;28;20037;-77
2021/06/13 03:37:07;;;;;;;10.40;7.70;;;;;;;12.50;89.61;96994.66;5025374;28;20566;-77
2021/06/13 03:39:35;;;;;;;12.17;8.00;;;;;;;12.57;89.23;96991.41;4998848;28;20033;-77
2021/06/13 03:42:01;;;;;;;11.03;8.07;;;;;;;12.58;88.94;96987.81;4994417;28;20033;-77
2021/06/13 03:44:28;;;;;;;11.00;8.50;;;;;;;12.65;88.86;96991.50;4987428;28;20037;-77
2021/06/13 03:46:55;;;;;;;11.77;8.13;;;;;;;12.65;88.63;96994.16;5031654;28;20099;-77
2021/06/13 03:49:22;;;;;;;12.63;8.43;;;;;;;12.60;89.46;96993.75;5012079;28;20036;-77
2021/06/13 03:51:51;;;;;;;11.20;8.07;;;;;;;12.64;89.03;96998.59;5038784;28;20030;-77
2021/06/13 03:54:16;;;;;;;11.63;8.03;;;;;;;12.68;88.53;96993.84;5007943;28;20530;-77
2021/06/13 03:56:45;;;;;;;12.90;8.20;;;;;;;12.70;88.66;97000.59;5022692;28;20112;-77
2021/06/13 03:59:12;;;;;;;10.17;7.20;;;;;;;12.62;88.59;96997.91;5010251;28;20021;-77
2021/06/13 04:01:40;;;;;;;11.47;7.93;;;;;;;12.66;88.83;96995.78;5034584;28;20098;-77
2021/06/13 04:04:07;;;;;;;14.50;8.73;;;;;;;12.56;88.54;96995.88;5014281;28;20092;-77
2021/06/13 04:06:33;;;;;;;14.27;8.40;;;;;;;12.62;88.33;96995.28;5010348;28;20064;-77
2021/06/13 04:09:00;;;;;;;12.37;7.80;;;;;;;12.73;88.13;96991.56;5006201;28;20100;-77
2021/06/13 04:11:26;;;;;;;14.17;7.27;;;;;;;12.67;87.57;96992.16;5000242;28;20395;-78
2021/06/13 04:13:54;;;;;;;10.73;7.63;;;;;;;12.84;87.37;96998.38;5006932;28;20026;-77
2021/06/13 04:16:22;;;;;;;10.80;8.03;;;;;;;12.84;86.75;96993.94;5021108;28;20033;-77
2021/06/13 04:18:48;;;;;;;13.37;8.03;;;;;;;12.88;86.36;96999.75;5009345;28;20121;-78
2021/06/13 04:21:15;;;;;;;11.50;8.10;;;;;;;13.01;85.13;97004.59;4993820;28;20041;-78
2021/06/13 04:23:43;;;;;;;13.23;8.17;;;;;;;13.04;85.19;97002.47;5015928;28;20104;-78
2021/06/13 04:26:14;;;;;;;11.40;8.03;;;;;;;13.12;84.53;97009.63;5003201;28;20167;-77
2021/06/13 04:28:41;;;;;;;10.47;7.97;;;;;;;13.17;84.17;97007.34;5007937;28;20054;-77
2021/06/13 04:31:13;;;;;;;11.10;7.00;;;;;;;13.24;84.71;97013.69;5022819;28;20029;-78
2021/06/13 04:33:46;;;;;;;11.88;6.90;;;;;;;13.36;83.86;97025.66;5013400;28;20498;-78
2021/06/13 04:36:16;;;;;;;9.40;6.70;;;;;;;13.37;83.09;97023.81;5016723;28;20032;-78
2021/06/13 04:38:42;;;;;;;11.17;7.73;;;;;;;13.47;83.11;97021.06;5010749;28;20143;-78
2021/06/13 04:41:09;;;;;;;13.53;7.67;;;;;;;13.56;82.35;97022.78;4999108;28;20761;-78
2021/06/13 04:43:36;;;;;;;12.23;7.77;;;;;;;13.62;81.06;97022.16;5014378;28;20021;-78
2021/06/13 04:46:03;;;;;;;13.47;8.20;;;;;;;13.71;81.40;97023.00;5019508;28;20017;-80
2021/06/13 04:48:29;;;;;;;11.30;6.60;;;;;;;13.77;80.37;97033.75;5029843;28;20037;-79
2021/06/13 04:51:01;;;;;;;12.43;6.83;;;;;;;13.81;79.62;97032.44;5023875;28;20033;-78
2021/06/13 04:53:49;;;;;;;9.73;5.90;;;;;;;13.84;79.63;97034.75;5004641;28;20030;-78
2021/06/13 04:56:23;;;;;;;9.90;5.90;;;;;;;14.01;79.02;97040.13;5032653;28;20036;-78
2021/06/13 04:58:49;;;;;;;6.87;5.37;;;;;;;14.12;77.58;97038.00;5005080;28;20032;-78
2021/06/13 05:01:15;;;;;;;7.80;5.10;;;;;;;14.25;77.38;97042.84;5023066;28;20649;-78
2021/06/13 05:03:44;;;;;;;11.67;6.00;;;;;;;14.31;76.50;97034.22;5014365;28;20456;-78
2021/06/13 05:06:10;;;;;;;9.40;5.03;;;;;;;14.27;77.23;97042.66;5019758;28;20013;-78
2021/06/13 05:08:39;;;;;;;10.73;5.17;;;;;;;14.39;76.39;97044.84;5026088;28;20134;-78
2021/06/13 05:11:04;;;;;;;7.13;4.77;;;;;;;14.57;75.86;97051.84;5006372;28;20506;-79
2021/06/13 05:13:30;;;;;;;9.20;4.63;;;;;;;14.61;75.86;97048.69;5022934;28;20120;-78
2021/06/13 05:15:56;;;;;;;7.67;5.00;;;;;;;14.87;74.19;97052.19;5022617;28;20048;-78
2021/06/13 05:18:22;;;;;;;9.37;4.80;;;;;;;14.95;73.43;97054.81;5011980;28;20042;-79
2021/06/13 05:20:52;;;;;;;10.97;5.30;;;;;;;15.05;72.96;97053.63;5021737;28;20109;-78
2021/06/13 05:23:19;;;;;;;8.40;4.97;;;;;;;15.20;72.46;97048.50;5013100;28;20026;-78
2021/06/13 05:25:46;;;;;;;9.20;5.40;;;;;;;15.32;71.47;97054.25;5023856;28;20025;-79
2021/06/13 05:28:12;;;;;;;8.30;4.50;;;;;;;15.52;71.47;97060.03;5025986;28;20033;-78
2021/06/13 05:30:39;;;;;;;10.03;5.03;;;;;;;15.75;71.11;97060.97;5025875;28;20031;-78
2021/06/13 05:33:06;;;;;;;9.80;4.90;;;;;;;15.97;70.24;97061.25;5006345;28;20034;-79
2021/06/13 05:35:32;;;;;;;10.60;5.07;;;;;;;15.96;69.59;97055.09;5013579;28;20025;-79
2021/06/13 05:37:58;;;;;;;8.30;4.67;;;;;;;16.21;68.75;97054.97;4998128;28;20076;-79
2021/06/13 05:40:24;;;;;;;8.27;4.33;;;;;;;16.49;67.40;97060.59;5009723;28;20037;-78
2021/06/13 05:42:53;;;;;;;7.30;4.40;;;;;;;16.22;66.58;97060.09;5016218;28;20033;-78
2021/06/13 05:45:21;;;;;;;9.73;4.50;;;;;;;16.00;67.89;97063.53;5017630;28;20021;-78
2021/06/13 05:47:47;;;;;;;9.00;4.20;;;;;;;16.44;66.30;97069.09;5009651;28;20037;-78
2021/06/13 05:50:14;;;;;;;8.00;3.60;;;;;;;16.53;65.60;97061.91;5036697;28;20669;-79
2021/06/13 05:52:40;;;;;;;8.10;4.13;;;;;;;17.17;63.96;97064.28;5006194;28;20103;-78
2021/06/13 05:55:07;;;;;;;6.40;4.00;;;;;;;17.19;64.48;97068.38;5013805;28;20034;-78
2021/06/13 05:57:33;;;;;;;5.40;3.70;;;;;;;17.70;61.35;97069.53;5013813;28;20062;-79
2021/06/13 06:00:03;;;;;;;9.93;4.20;;;;;;;17.80;61.33;97064.78;5023465;28;20079;-79
2021/06/13 06:02:38;;;;;;;5.93;3.70;;;;;;;17.67;61.79;97068.06;5019689;28;20103;-79
2021/06/13 06:05:06;;;;;;;8.60;3.88;;;;;;;17.49;61.09;97068.44;5015719;28;20032;-79
2021/06/13 06:07:31;;;;;;;8.65;3.97;;;;;;;17.22;62.48;97079.69;5031469;28;20027;-79
2021/06/13 06:09:57;;;;;;;6.72;3.47;;;;;;;17.42;61.33;97075.50;5024431;28;20037;-79
2021/06/13 06:12:24;;;;;;;7.93;3.95;;;;;;;17.84;60.95;97077.56;5014348;28;20036;-79
2021/06/13 06:14:50;;;;;;;8.65;3.97;;;;;;;18.47;59.33;97069.91;4996374;28;20045;-80
2021/06/13 06:17:16;;;;;;;9.75;4.95;;;;;;;18.55;58.25;97080.47;5019405;28;20025;-79
2021/06/13 06:19:42;;;;;;;7.93;3.90;;;;;;;18.70;57.52;97074.25;5021086;28;20491;-79
2021/06/13 06:22:08;;;;;;;8.98;3.85;;;;;;;19.02;56.15;97079.09;5012064;28;20036;-79
2021/06/13 06:24:34;;;;;;;8.60;3.60;;;;;;;19.18;54.54;97086.03;5004692;28;20030;-80
2021/06/13 06:27:00;;;;;;;6.95;3.40;;;;;;;19.42;53.53;97082.09;5025174;28;20105;-79
2021/06/13 06:29:26;;;;;;;7.90;3.05;;;;;;;19.38;54.47;97080.00;5006783;28;20033;-79
2021/06/13 06:31:52;;;;;;;6.32;3.00;;;;;;;19.50;54.19;97083.78;4998350;28;20614;-79
2021/06/13 06:34:18;;;;;;;4.97;2.80;;;;;;;19.51;53.48;97085.41;5001193;28;20036;-79
2021/06/13 06:36:45;;;;;;;10.80;3.50;;;;;;;20.09;52.70;97087.88;5016356;28;20028;-79
2021/06/13 06:39:11;;;;;;;5.68;2.83;;;;;;;20.36;51.83;97080.78;5023391;28;20033;-79
2021/06/13 06:41:38;;;;;;;10.90;2.70;;;;;;;20.31;50.67;97070.69;5018473;28;20051;-78
2021/06/13 06:44:07;;;;;;;10.73;2.97;;;;;;;21.17;49.61;97078.91;5011929;28;20037;-78
2021/06/13 06:46:34;;;;;;;7.10;3.08;;;;;;;20.16;51.01;97089.53;5020708;28;20013;-78
2021/06/13 06:48:59;;;;;;;7.63;3.03;;;;;;;21.08;49.81;97077.44;5019170;28;20029;-78
2021/06/13 06:51:26;;;;;;;8.52;2.70;;;;;;;21.25;49.66;97077.06;5015836;28;20086;-78
2021/06/13 06:53:57;;;;;;;9.20;3.22;;;;;;;21.06;48.52;97082.19;5000511;28;20084;-79
2021/06/13 06:56:27;;;;;;;10.27;3.00;;;;;;;21.75;46.41;97080.94;5019454;28;20461;-78
2021/06/13 06:58:54;;;;;;;5.35;2.20;;;;;;;22.20;45.11;97097.13;5021718;28;20059;-78
2021/06/13 07:01:21;;;;;;;8.35;3.55;;;;;;;21.96;45.41;97105.81;5036892;28;20051;-78
2021/06/13 07:03:47;;;;;;;6.53;2.80;;;;;;;22.45;43.70;97104.44;5010499;28;20486;-79
2021/06/13 07:06:12;;;;;;;6.25;2.22;;;;;;;21.16;47.35;97114.72;5028256;28;20021;-78
2021/06/13 07:08:38;;;;;;;6.50;2.53;;;;;;;21.32;46.80;97108.13;5020657;28;20195;-78
2021/06/13 07:11:04;;;;;;;6.82;2.53;;;;;;;21.34;47.05;97113.28;5024430;28;20013;-78
2021/06/13 07:13:30;;;;;;;5.88;2.25;;;;;;;22.58;44.13;97113.25;5005879;28;20045;-78
2021/06/13 07:15:56;;;;;;;7.63;2.97;;;;;;;21.37;44.93;97121.75;5006270;28;20072;-79
2021/06/13 07:18:21;;;;;;;6.25;2.83;;;;;;;20.52;48.72;97127.72;5024520;28;20502;-79
2021/06/13 07:20:47;;;;;;;7.82;2.40;;;;;;;22.20;45.07;97117.72;5005713;28;20060;-79
2021/06/13 07:23:13;;;;;;;9.70;2.35;;;;;;;22.72;44.67;97116.69;4993661;28;20216;-78
2021/06/13 07:25:39;;;;;;;7.72;2.72;;;;;;;22.18;45.31;97119.81;4995593;28;20143;-78
2021/06/13 07:28:05;;;;;;;7.22;2.97;;;;;;;22.18;45.31;97128.66;5007765;28;20033;-79
2021/06/13 07:30:33;;;;;;;7.25;3.67;;;;;;;22.97;42.70;97118.63;5017053;28;20701;-79
2021/06/13 07:32:59;;;;;;;6.35;2.83;;;;;;;20.91;48.16;97119.81;5026605;28;20036;-78
2021/06/13 07:35:24;;;;;;;5.10;2.50;;;;;;;22.72;43.73;97116.69;5010724;28;20021;-78
2021/06/13 07:37:50;;;;;;;8.27;3.25;;;;;;;24.22;41.21;97118.59;5037050;28;20033;-79
2021/06/13 07:40:18;;;;;;;5.65;3.05;;;;;;;23.20;41.68;97124.25;5017113;28;20060;-79
2021/06/13 07:42:45;;;;;;;7.43;2.78;;;;;;;23.34;42.09;97126.81;5014289;28;20152;-79
2021/06/13 07:45:12;;;;;;;6.97;2.72;;;;;;;22.49;44.24;97129.78;5037940;28;20017;-79
2021/06/13 07:47:38;;;;;;;5.57;2.90;;;;;;;20.84;47.20;97134.19;5011511;28;20080;-79
2021/06/13 07:50:06;;;;;;;6.63;2.70;;;;;;;21.16;47.08;97132.63;4993502;28;20030;-79
2021/06/13 07:52:32;;;;;;;6.55;3.10;;;;;;;22.22;45.06;97131.75;5017630;28;20497;-78
2021/06/13 07:54:58;;;;;;;6.00;2.80;;;;;;;23.46;43.18;97125.09;5023612;28;20032;-79
2021/06/13 07:57:24;;;;;;;9.68;3.40;;;;;;;23.68;42.38;97139.81;5028171;28;20025;-79
2021/06/13 07:59:50;;;;;;;7.32;3.30;;;;;;;23.26;43.06;97146.72;5017431;28;20032;-79
2021/06/13 08:02:16;;;;;;;6.30;2.85;;;;;;;22.97;42.27;97138.25;5021871;28;20041;-79
2021/06/13 08:04:47;;;;;;;6.95;2.65;;;;;;;25.00;38.39;97125.91;5019105;28;20032;-78
2021/06/13 08:07:13;;;;;;;10.43;3.13;;;;;;;23.43;40.09;97141.63;5040693;28;20026;-80
2021/06/13 08:09:38;;;;;;;6.93;2.53;;;;;;;23.80;40.19;97144.44;5015909;28;20454;-79
2021/06/13 08:12:05;;;;;;;6.68;2.67;;;;;;;24.35;38.85;97141.81;5037505;28;20084;-79
2021/06/13 08:14:30;;;;;;;10.18;2.70;;;;;;;24.13;39.33;97144.94;5000077;28;20029;-79
2021/06/13 08:16:56;;;;;;;9.18;2.90;;;;;;;24.17;38.26;97138.06;5017903;28;20055;-80
2021/06/13 08:19:24;;;;;;;7.47;2.83;;;;;;;26.40;35.59;97134.38;5005986;28;20053;-79
2021/06/13 08:21:50;;;;;;;7.10;2.10;;;;;;;25.34;36.37;97134.31;5012354;28;20059;-79
2021/06/13 08:24:16;;;;;;;7.60;2.75;;;;;;;24.77;38.36;97145.44;5016070;28;20467;-80
2021/06/13 08:26:42;;;;;;;7.38;2.55;;;;;;;26.56;33.68;97128.25;5015112;28;20041;-80
2021/06/13 08:29:07;;;;;;;6.78;2.10;;;;;;;27.24;32.92;97121.19;5022481;28;20033;-79
2021/06/13 08:31:33;;;;;;;5.80;2.50;;;;;;;26.56;32.57;97126.38;5022124;28;20395;-79
2021/06/13 08:33:59;;;;;;;7.60;2.45;;;;;;;27.87;30.60;97124.66;5009273;28;20052;-79
2021/06/13 08:36:25;;;;;;;4.53;2.00;;;;;;;26.95;33.63;97121.16;5018765;28;20030;-80
2021/06/13 08:38:52;;;;;;;7.50;3.03;;;;;;;27.21;33.23;97125.19;5015461;28;20060;-80
2021/06/13 08:41:19;;;;;;;5.78;2.13;;;;;;;27.61;32.60;97115.28;5028052;28;20112;-80
2021/06/13 08:43:49;;;;;;;6.50;2.20;;;;;;;28.28;31.92;97120.63;5027831;28;20511;-79
2021/06/13 08:46:16;;;;;;;6.13;2.20;;;;;;;27.19;32.31;97112.97;5023278;28;20057;-81
2021/06/13 08:48:44;;;;;;;5.18;2.28;;;;;;;28.41;30.60;97117.56;5017076;28;20029;-80
2021/06/13 08:51:10;;;;;;;5.50;2.25;;;;;;;28.19;31.41;97109.41;5014700;28;20035;-80
2021/06/13 08:53:36;;;;;;;5.95;2.10;;;;;;;28.59;31.83;97110.19;5034523;28;20028;-79
2021/06/13 08:56:02;;;;;;;8.68;4.53;;;;;;;28.20;30.18;97112.91;5020788;28;20099;-79
2021/06/13 08:58:28;;;;;;;5.10;2.28;;;;;;;26.78;32.27;97112.22;5012292;28;20029;-79
2021/06/13 09:00:54;;;;;;;7.50;4.00;;;;;;;28.80;31.18;97112.03;5016766;28;20037;-79
2021/06/13 09:03:20;;;;;;;5.25;2.70;;;;;;;27.93;31.67;97107.41;5004206;28;20017;-80
2021/06/13 09:05:46;;;;;;;4.22;2.10;;;;;;;27.73;31.36;97107.91;5015617;28;20100;-79
2021/06/13 09:08:14;;;;;;;5.72;2.25;;;;;;;29.65;29.18;97096.09;5025441;28;20032;-79
2021/06/13 09:10:42;;;;;;;5.50;2.25;;;;;;;29.27;28.86;97095.19;5025741;28;20048;-80
2021/06/13 09:13:24;;;;;;;5.20;2.20;;;;;;;28.56;29.88;97103.38;5033727;28;20022;-81
2021/06/13 09:15:56;;;;;;;4.97;2.00;;;;;;;29.29;29.21;97109.31;5033758;28;20090;-80
2021/06/13 09:18:44;;;;;;;5.47;2.30;;;;;;;28.28;31.34;97104.38;5014874;28;20581;-82
2021/06/13 09:21:28;;;;;;;4.55;2.22;;;;;;;27.73;32.12;97108.75;5031339;28;20033;-79
2021/06/13 09:23:55;;;;;;;6.93;2.70;;;;;;;28.84;30.70;97113.19;5014554;28;20041;-81
2021/06/13 09:26:26;;;;;;;9.73;2.45;;;;;;;28.75;30.18;97111.19;5009895;28;20043;-80
2021/06/13 09:28:54;;;;;;;5.07;1.70;;;;;;;28.96;29.79;97101.38;5002683;28;20105;-80
2021/06/13 09:31:21;;;;;;;4.93;2.13;;;;;;;28.52;31.44;97102.25;5016031;28;20026;-79
2021/06/13 09:33:50;;;;;;;7.15;2.88;;;;;;;26.79;34.04;97111.97;5027823;28;20025;-79
2021/06/13 09:36:19;;;;;;;7.40;2.20;;;;;;;26.20;34.23;97110.47;5009474;28;20026;-79
2021/06/13 09:38:46;;;;;;;7.30;2.08;;;;;;;28.10;31.51;97105.50;5021577;28;20041;-79
2021/06/13 09:41:15;;;;;;;3.67;1.80;;;;;;;28.69;30.33;97110.31;5020291;28;20049;-81
2021/06/13 09:43:50;;;;;;;5.47;1.80;;;;;;;29.44;29.34;97105.91;5010569;28;20038;-80
2021/06/13 09:46:20;;;;;;;6.35;2.55;;;;;;;29.22;30.07;97108.72;5020670;28;20021;-80
2021/06/13 09:48:52;;;;;;;5.90;1.90;;;;;;;28.95;29.58;97110.59;5025135;28;20044;-80
2021/06/13 09:51:21;;;;;;;4.43;1.63;;;;;;;28.57;30.45;97115.03;5012968;28;20025;-80
2021/06/13 09:53:55;;;;;;;3.78;1.63;;;;;;;28.35;30.69;97123.94;5023402;28;20033;-80
2021/06/13 09:56:26;;;;;;;4.05;1.58;;;;;;;29.12;29.53;97122.16;5021602;28;20041;-80
2021/06/13 09:58:57;;;;;;;6.17;2.60;;;;;;;28.90;29.64;97117.56;5008038;28;20041;-80
2021/06/13 10:01:29;;;;;;;5.97;2.30;;;;;;;28.33;30.53;97128.78;5044530;28;20455;-81
2021/06/13 10:03:57;;;;;;;7.32;2.75;;;;;;;27.03;33.66;97118.09;5045648;28;20152;-80
2021/06/13 10:06:23;;;;;;;5.25;2.60;;;;;;;27.52;32.72;97130.28;5017423;28;20014;-80
2021/06/13 10:08:50;;;;;;;5.32;1.90;;;;;;;26.75;32.84;97126.19;5027389;28;20037;-79
2021/06/13 10:11:18;;;;;;;6.07;2.22;;;;;;;27.54;31.33;97125.44;5020259;28;20543;-80
2021/06/13 10:13:52;;;;;;;5.65;1.60;;;;;;;28.13;32.11;97131.22;5003824;28;20173;-80
2021/06/13 10:16:33;;;;;;;5.25;2.03;;;;;;;28.74;30.45;97131.19;4998199;28;20045;-80
2021/06/13 10:19:11;;;;;;;6.35;2.25;;;;;;;28.53;30.85;97132.84;5025283;28;20036;-80
2021/06/13 10:22:02;;;;;;;6.45;1.70;;;;;;;29.46;29.69;97128.16;5020714;28;20072;-80
2021/06/13 10:24:30;;;;;;;3.88;2.08;;;;;;;29.08;29.78;97129.19;5005657;28;20052;-81
2021/06/13 10:27:02;;;;;;;5.57;2.08;;;;;;;29.18;29.48;97118.44;5001674;28;20026;-80
2021/06/13 10:29:30;;;;;;;5.35;1.85;;;;;;;29.76;28.31;97133.03;5012146;28;20061;-80
2021/06/13 10:31:58;;;;;;;5.80;1.98;;;;;;;28.71;29.45;97124.41;5021198;28;20022;-80
2021/06/13 10:34:26;;;;;;;5.43;2.00;;;;;;;28.29;29.75;97129.53;5014847;28;20121;-80
2021/06/13 10:36:53;;;;;;;7.38;2.08;;;;;;;28.06;29.75;97128.69;5023126;28;20479;-80
2021/06/13 10:39:22;;;;;;;5.47;1.75;;;;;;;28.99;29.63;97125.25;5001543;28;20033;-81
2021/06/13 10:41:49;;;;;;;8.93;4.50;;;;;;;29.90;28.44;97127.16;4987930;28;20022;-80
2021/06/13 10:44:20;;;;;;;6.07;2.42;;;;;;;29.70;27.27;97115.09;5004510;28;20424;-82
2021/06/13 10:46:49;;;;;;;5.50;2.10;;;;;;;29.26;28.27;97119.84;5006670;28;20049;-80
2021/06/13 10:49:40;;;;;;;6.50;1.83;;;;;;;29.04;29.29;97112.63;5010554;28;20562;-80
2021/06/13 10:52:12;;;;;;;4.50;1.90;;;;;;;28.32;28.96;97118.22;5025792;28;20503;-80
2021/06/13 10:54:50;;;;;;;5.22;2.78;;;;;;;29.86;25.87;97104.34;5028213;28;20648;-81
2021/06/13 10:57:16;;;;;;;4.35;2.05;;;;;;;28.92;28.34;97113.81;5020086;28;20041;-80
2021/06/13 10:59:47;;;;;;;5.15;1.58;;;;;;;28.11;28.75;97114.44;5047284;28;20455;-81
2021/06/13 11:02:21;;;;;;;4.93;1.60;;;;;;;29.19;28.28;97113.84;5023376;28;20061;-80
2021/06/13 11:05:02;;;;;;;7.15;1.52;;;;;;;28.81;28.50;97116.41;5008245;28;20095;-80
2021/06/13 11:07:28;;;;;;;5.22;1.63;;;;;;;29.28;27.97;97104.97;5022521;28;20041;-80
2021/06/13 11:10:04;;;;;;;5.65;1.90;;;;;;;29.90;26.65;97106.28;5007145;28;20025;-80
2021/06/13 11:12:39;;;;;;;4.55;1.73;;;;;;;29.71;26.15;97100.47;5013540;28;20032;-82
2021/06/13 11:15:06;;;;;;;4.28;1.50;;;;;;;29.56;26.83;97093.00;5046128;28;20040;-80
2021/06/13 11:18:06;;;;;;;5.38;1.50;;;;;;;30.18;26.47;97099.69;5027147;28;20038;-80
2021/06/13 11:23:13;;;;;;;8.75;3.38;;;;;;;30.42;25.96;97099.28;5012954;28;20030;-81
2021/06/13 11:25:39;;;;;;;;;;;;;;;27.47;29.21;97106.72;5018605;28;20030;-81
2021/06/13 11:28:24;;;;;;;5.35;1.65;;;;;;;28.23;27.03;97109.72;5021600;28;20008;-79
2021/06/13 11:31:24;;;;;;;4.35;1.77;;;;;;;29.06;25.90;97104.22;5011393;28;20034;-81
2021/06/13 11:34:01;;;;;;;3.35;1.30;;;;;;;27.79;27.59;97100.72;5024677;28;20034;-81
2021/06/13 11:36:34;;;;;;;4.05;2.45;;;;;;;28.65;27.54;97109.19;5021152;28;20048;-80
2021/06/13 11:39:03;;;;;;;3.90;1.70;;;;;;;29.24;26.18;97100.31;5013368;28;20085;-80
2021/06/13 11:41:43;;;;;;;13.95;7.35;;;;;;;28.40;27.34;97102.41;5030523;28;20014;-81
2021/06/13 11:44:12;;;;;;;3.97;1.70;;;;;;;28.79;27.69;97098.78;5015415;28;20114;-80